sensor_id;sensor_type;location;lat;lon;timestamp;P1;durP1;ratioP1;P2;durP2;ratioP2
17852;SDS011;9052;53.494;14.376;2023-02-28T00:00:34;17.97;;;10.13;;
17852;SDS011;9052;53.494;14.376;2023-02-28T00:03:01;25.30;;;12.63;;
17852;SDS011;9052;53.494;14.376;2023-02-28T00:05:29;20.37;;;12.73;;
17852;SDS011;9052;53.494;14.376;2023-02-28T00:07:56;18.37;;;12.87;;
17852;SDS011;9052;53.494;14.376;2023-02-28T00:10:24;19.30;;;10.83;;
17852;SDS011;9052;53.494;14.376;2023-02-28T00:12:53;27.53;;;10.60;;
17852;SDS011;9052;53.494;14.376;2023-02-28T00:15:22;18.60;;;10.50;;
17852;SDS011;9052;53.494;14.376;2023-02-28T00:17:49;18.60;;;9.87;;
17852;SDS011;9052;53.494;14.376;2023-02-28T00:20:16;20.83;;;10.90;;
17852;SDS011;9052;53.494;14.376;2023-02-28T00:22:45;21.63;;;11.30;;
17852;SDS011;9052;53.494;14.376;2023-02-28T00:25:15;24.07;;;11.40;;
17852;SDS011;9052;53.494;14.376;2023-02-28T00:27:42;25.50;;;10.30;;
17852;SDS011;9052;53.494;14.376;2023-02-28T00:30:10;16.63;;;10.27;;
17852;SDS011;9052;53.494;14.376;2023-02-28T00:32:38;19.03;;;10.60;;
17852;SDS011;9052;53.494;14.376;2023-02-28T00:35:05;15.37;;;9.93;;
17852;SDS011;9052;53.494;14.376;2023-02-28T00:37:33;16.00;;;10.13;;
17852;SDS011;9052;53.494;14.376;2023-02-28T00:40:01;16.37;;;10.53;;
17852;SDS011;9052;53.494;14.376;2023-02-28T00:42:30;16.70;;;10.47;;
17852;SDS011;9052;53.494;14.376;2023-02-28T00:44:56;19.60;;;11.70;;
17852;SDS011;9052;53.494;14.376;2023-02-28T00:47:23;18.60;;;11.20;;
17852;SDS011;9052;53.494;14.376;2023-02-28T00:49:50;16.23;;;10.47;;
17852;SDS011;9052;53.494;14.376;2023-02-28T00:52:17;16.77;;;9.83;;
17852;SDS011;9052;53.494;14.376;2023-02-28T00:54:43;17.27;;;10.57;;
17852;SDS011;9052;53.494;14.376;2023-02-28T00:57:11;16.10;;;9.53;;
17852;SDS011;9052;53.494;14.376;2023-02-28T00:59:38;20.07;;;12.77;;
17852;SDS011;9052;53.494;14.376;2023-02-28T01:02:05;29.53;;;11.30;;
17852;SDS011;9052;53.494;14.376;2023-02-28T01:04:31;26.63;;;13.40;;
17852;SDS011;9052;53.494;14.376;2023-02-28T01:06:58;27.23;;;12.50;;
17852;SDS011;9052;53.494;14.376;2023-02-28T01:09:25;18.53;;;11.27;;
17852;SDS011;9052;53.494;14.376;2023-02-28T01:11:51;25.50;;;12.80;;
17852;SDS011;9052;53.494;14.376;2023-02-28T01:14:19;18.90;;;12.10;;
17852;SDS011;9052;53.494;14.376;2023-02-28T01:16:46;25.80;;;10.10;;
17852;SDS011;9052;53.494;14.376;2023-02-28T01:19:13;18.40;;;10.80;;
17852;SDS011;9052;53.494;14.376;2023-02-28T01:21:39;16.43;;;10.53;;
17852;SDS011;9052;53.494;14.376;2023-02-28T01:24:06;30.20;;;12.43;;
17852;SDS011;9052;53.494;14.376;2023-02-28T01:26:33;32.37;;;11.37;;
17852;SDS011;9052;53.494;14.376;2023-02-28T01:29:00;14.60;;;9.20;;
17852;SDS011;9052;53.494;14.376;2023-02-28T01:31:28;16.20;;;9.20;;
17852;SDS011;9052;53.494;14.376;2023-02-28T01:33:55;32.50;;;10.00;;
17852;SDS011;9052;53.494;14.376;2023-02-28T01:36:22;17.50;;;9.53;;
17852;SDS011;9052;53.494;14.376;2023-02-28T01:38:50;13.00;;;8.70;;
17852;SDS011;9052;53.494;14.376;2023-02-28T01:41:18;10.60;;;8.50;;
17852;SDS011;9052;53.494;14.376;2023-02-28T01:43:53;18.33;;;8.20;;
17852;SDS011;9052;53.494;14.376;2023-02-28T01:46:22;25.90;;;9.30;;
17852;SDS011;9052;53.494;14.376;2023-02-28T01:48:51;15.37;;;9.40;;
17852;SDS011;9052;53.494;14.376;2023-02-28T01:51:20;16.47;;;8.80;;
17852;SDS011;9052;53.494;14.376;2023-02-28T01:53:50;13.57;;;8.37;;
17852;SDS011;9052;53.494;14.376;2023-02-28T01:56:20;25.67;;;10.97;;
17852;SDS011;9052;53.494;14.376;2023-02-28T01:58:48;18.80;;;9.70;;
17852;SDS011;9052;53.494;14.376;2023-02-28T02:01:16;31.80;;;9.53;;
17852;SDS011;9052;53.494;14.376;2023-02-28T02:03:46;14.63;;;9.43;;
17852;SDS011;9052;53.494;14.376;2023-02-28T02:06:14;15.23;;;10.50;;
17852;SDS011;9052;53.494;14.376;2023-02-28T02:08:41;14.03;;;8.30;;
17852;SDS011;9052;53.494;14.376;2023-02-28T02:11:08;20.83;;;10.30;;
17852;SDS011;9052;53.494;14.376;2023-02-28T02:13:42;9.63;;;7.40;;
17852;SDS011;9052;53.494;14.376;2023-02-28T02:16:23;13.33;;;8.23;;
17852;SDS011;9052;53.494;14.376;2023-02-28T02:18:58;11.33;;;8.20;;
17852;SDS011;9052;53.494;14.376;2023-02-28T02:21:43;12.27;;;9.40;;
17852;SDS011;9052;53.494;14.376;2023-02-28T02:24:22;17.60;;;8.20;;
17852;SDS011;9052;53.494;14.376;2023-02-28T02:27:15;12.40;;;9.13;;
17852;SDS011;9052;53.494;14.376;2023-02-28T02:35:39;17.50;;;9.40;;
17852;SDS011;9052;53.494;14.376;2023-02-28T02:38:09;10.20;;;7.70;;
17852;SDS011;9052;53.494;14.376;2023-02-28T02:40:41;10.37;;;6.87;;
17852;SDS011;9052;53.494;14.376;2023-02-28T02:43:12;9.80;;;7.27;;
17852;SDS011;9052;53.494;14.376;2023-02-28T02:45:42;12.87;;;9.00;;
17852;SDS011;9052;53.494;14.376;2023-02-28T02:48:11;15.00;;;8.43;;
17852;SDS011;9052;53.494;14.376;2023-02-28T02:50:42;7.70;;;6.27;;
17852;SDS011;9052;53.494;14.376;2023-02-28T02:53:11;14.10;;;7.87;;
17852;SDS011;9052;53.494;14.376;2023-02-28T02:55:39;17.97;;;8.60;;
17852;SDS011;9052;53.494;14.376;2023-02-28T02:58:09;11.33;;;7.93;;
17852;SDS011;9052;53.494;14.376;2023-02-28T03:00:39;17.73;;;6.80;;
17852;SDS011;9052;53.494;14.376;2023-02-28T03:03:07;12.77;;;7.37;;
17852;SDS011;9052;53.494;14.376;2023-02-28T03:05:39;14.53;;;7.50;;
17852;SDS011;9052;53.494;14.376;2023-02-28T03:08:10;12.37;;;6.40;;
17852;SDS011;9052;53.494;14.376;2023-02-28T03:10:38;19.03;;;7.50;;
17852;SDS011;9052;53.494;14.376;2023-02-28T03:16:19;11.10;;;6.40;;
17852;SDS011;9052;53.494;14.376;2023-02-28T03:18:54;7.03;;;4.93;;
17852;SDS011;9052;53.494;14.376;2023-02-28T03:21:30;13.10;;;6.60;;
17852;SDS011;9052;53.494;14.376;2023-02-28T03:24:02;10.77;;;6.23;;
17852;SDS011;9052;53.494;14.376;2023-02-28T03:26:30;17.57;;;6.17;;
17852;SDS011;9052;53.494;14.376;2023-02-28T03:29:01;17.33;;;8.63;;
17852;SDS011;9052;53.494;14.376;2023-02-28T03:31:30;8.57;;;7.13;;
17852;SDS011;9052;53.494;14.376;2023-02-28T03:33:59;9.50;;;6.27;;
17852;SDS011;9052;53.494;14.376;2023-02-28T03:36:30;9.03;;;6.77;;
17852;SDS011;9052;53.494;14.376;2023-02-28T03:39:02;6.90;;;5.90;;
17852;SDS011;9052;53.494;14.376;2023-02-28T03:41:31;9.30;;;4.77;;
17852;SDS011;9052;53.494;14.376;2023-02-28T03:44:00;6.40;;;5.07;;
17852;SDS011;9052;53.494;14.376;2023-02-28T03:46:31;9.23;;;6.77;;
17852;SDS011;9052;53.494;14.376;2023-02-28T03:49:00;11.23;;;7.10;;
17852;SDS011;9052;53.494;14.376;2023-02-28T03:51:30;13.10;;;6.93;;
17852;SDS011;9052;53.494;14.376;2023-02-28T03:53:59;19.60;;;8.07;;
17852;SDS011;9052;53.494;14.376;2023-02-28T03:56:31;7.00;;;5.37;;
17852;SDS011;9052;53.494;14.376;2023-02-28T03:59:00;25.07;;;8.40;;
17852;SDS011;9052;53.494;14.376;2023-02-28T04:01:30;8.97;;;7.57;;
17852;SDS011;9052;53.494;14.376;2023-02-28T04:03:58;16.40;;;8.43;;
17852;SDS011;9052;53.494;14.376;2023-02-28T04:06:25;11.40;;;6.30;;
17852;SDS011;9052;53.494;14.376;2023-02-28T04:08:53;14.50;;;8.20;;
17852;SDS011;9052;53.494;14.376;2023-02-28T04:11:22;12.00;;;7.80;;
17852;SDS011;9052;53.494;14.376;2023-02-28T04:13:49;23.07;;;9.57;;
17852;SDS011;9052;53.494;14.376;2023-02-28T04:16:16;14.57;;;8.10;;
17852;SDS011;9052;53.494;14.376;2023-02-28T04:18:43;12.00;;;8.43;;
17852;SDS011;9052;53.494;14.376;2023-02-28T04:21:10;7.70;;;6.87;;
17852;SDS011;9052;53.494;14.376;2023-02-28T04:23:37;26.00;;;9.07;;
17852;SDS011;9052;53.494;14.376;2023-02-28T04:26:05;11.37;;;7.87;;
17852;SDS011;9052;53.494;14.376;2023-02-28T04:28:32;7.47;;;6.73;;
17852;SDS011;9052;53.494;14.376;2023-02-28T04:31:00;12.40;;;7.87;;
17852;SDS011;9052;53.494;14.376;2023-02-28T04:33:27;13.77;;;8.30;;
17852;SDS011;9052;53.494;14.376;2023-02-28T04:35:58;18.30;;;8.47;;
17852;SDS011;9052;53.494;14.376;2023-02-28T04:38:26;18.40;;;8.57;;
17852;SDS011;9052;53.494;14.376;2023-02-28T04:40:53;12.23;;;8.07;;
17852;SDS011;9052;53.494;14.376;2023-02-28T04:43:21;11.73;;;7.20;;
17852;SDS011;9052;53.494;14.376;2023-02-28T04:45:47;13.73;;;7.93;;
17852;SDS011;9052;53.494;14.376;2023-02-28T04:48:14;23.50;;;9.40;;
17852;SDS011;9052;53.494;14.376;2023-02-28T04:50:41;26.03;;;8.93;;
17852;SDS011;9052;53.494;14.376;2023-02-28T04:53:07;12.77;;;8.60;;
17852;SDS011;9052;53.494;14.376;2023-02-28T04:55:34;17.13;;;7.73;;
17852;SDS011;9052;53.494;14.376;2023-02-28T04:58:01;12.97;;;7.00;;
17852;SDS011;9052;53.494;14.376;2023-02-28T05:00:29;7.97;;;7.17;;
17852;SDS011;9052;53.494;14.376;2023-02-28T05:02:56;10.03;;;7.50;;
17852;SDS011;9052;53.494;14.376;2023-02-28T05:05:23;14.23;;;7.13;;
17852;SDS011;9052;53.494;14.376;2023-02-28T05:07:49;13.17;;;7.57;;
17852;SDS011;9052;53.494;14.376;2023-02-28T05:10:16;9.63;;;7.00;;
17852;SDS011;9052;53.494;14.376;2023-02-28T05:12:43;16.63;;;7.63;;
17852;SDS011;9052;53.494;14.376;2023-02-28T05:15:10;9.67;;;6.77;;
17852;SDS011;9052;53.494;14.376;2023-02-28T05:17:40;13.23;;;7.47;;
17852;SDS011;9052;53.494;14.376;2023-02-28T05:20:07;14.90;;;7.67;;
17852;SDS011;9052;53.494;14.376;2023-02-28T05:22:36;8.60;;;6.23;;
17852;SDS011;9052;53.494;14.376;2023-02-28T05:25:02;10.13;;;7.30;;
17852;SDS011;9052;53.494;14.376;2023-02-28T05:27:30;12.57;;;5.90;;
17852;SDS011;9052;53.494;14.376;2023-02-28T05:29:57;24.53;;;7.10;;
17852;SDS011;9052;53.494;14.376;2023-02-28T05:32:24;10.57;;;6.83;;
17852;SDS011;9052;53.494;14.376;2023-02-28T05:34:52;7.80;;;5.50;;
17852;SDS011;9052;53.494;14.376;2023-02-28T05:37:19;7.63;;;5.90;;
17852;SDS011;9052;53.494;14.376;2023-02-28T05:39:46;9.27;;;5.87;;
17852;SDS011;9052;53.494;14.376;2023-02-28T05:42:13;7.57;;;6.40;;
17852;SDS011;9052;53.494;14.376;2023-02-28T05:44:39;7.57;;;6.53;;
17852;SDS011;9052;53.494;14.376;2023-02-28T05:47:07;10.60;;;6.87;;
17852;SDS011;9052;53.494;14.376;2023-02-28T05:49:33;14.93;;;6.53;;
17852;SDS011;9052;53.494;14.376;2023-02-28T05:52:02;8.47;;;5.87;;
17852;SDS011;9052;53.494;14.376;2023-02-28T05:54:28;18.43;;;8.60;;
17852;SDS011;9052;53.494;14.376;2023-02-28T05:56:55;10.90;;;6.30;;
17852;SDS011;9052;53.494;14.376;2023-02-28T05:59:22;11.10;;;6.33;;
17852;SDS011;9052;53.494;14.376;2023-02-28T06:01:49;15.70;;;10.07;;
17852;SDS011;9052;53.494;14.376;2023-02-28T06:04:17;10.70;;;7.70;;
17852;SDS011;9052;53.494;14.376;2023-02-28T06:06:45;8.60;;;7.23;;
17852;SDS011;9052;53.494;14.376;2023-02-28T06:09:13;13.50;;;7.60;;
17852;SDS011;9052;53.494;14.376;2023-02-28T06:11:40;22.70;;;9.93;;
17852;SDS011;9052;53.494;14.376;2023-02-28T06:14:07;14.30;;;8.53;;
17852;SDS011;9052;53.494;14.376;2023-02-28T06:16:34;7.20;;;5.77;;
17852;SDS011;9052;53.494;14.376;2023-02-28T06:19:01;9.43;;;6.63;;
17852;SDS011;9052;53.494;14.376;2023-02-28T06:21:29;24.20;;;7.70;;
17852;SDS011;9052;53.494;14.376;2023-02-28T06:23:57;10.80;;;7.63;;
17852;SDS011;9052;53.494;14.376;2023-02-28T06:26:25;15.20;;;6.57;;
17852;SDS011;9052;53.494;14.376;2023-02-28T06:28:52;9.17;;;6.27;;
17852;SDS011;9052;53.494;14.376;2023-02-28T06:31:19;11.40;;;7.50;;
17852;SDS011;9052;53.494;14.376;2023-02-28T06:33:47;21.00;;;10.80;;
17852;SDS011;9052;53.494;14.376;2023-02-28T06:36:14;13.80;;;8.43;;
17852;SDS011;9052;53.494;14.376;2023-02-28T06:38:41;16.33;;;9.67;;
17852;SDS011;9052;53.494;14.376;2023-02-28T06:41:09;22.57;;;10.77;;
17852;SDS011;9052;53.494;14.376;2023-02-28T06:43:38;17.13;;;10.90;;
17852;SDS011;9052;53.494;14.376;2023-02-28T06:46:07;34.80;;;11.77;;
17852;SDS011;9052;53.494;14.376;2023-02-28T06:48:34;28.63;;;15.53;;
17852;SDS011;9052;53.494;14.376;2023-02-28T06:51:02;33.57;;;16.93;;
17852;SDS011;9052;53.494;14.376;2023-02-28T06:53:29;48.00;;;28.10;;
17852;SDS011;9052;53.494;14.376;2023-02-28T06:55:56;26.90;;;16.77;;
17852;SDS011;9052;53.494;14.376;2023-02-28T06:58:23;33.23;;;20.40;;
17852;SDS011;9052;53.494;14.376;2023-02-28T07:00:52;43.30;;;24.10;;
17852;SDS011;9052;53.494;14.376;2023-02-28T07:03:18;55.03;;;17.80;;
17852;SDS011;9052;53.494;14.376;2023-02-28T07:05:45;50.03;;;22.30;;
17852;SDS011;9052;53.494;14.376;2023-02-28T07:08:12;42.47;;;23.07;;
17852;SDS011;9052;53.494;14.376;2023-02-28T07:10:39;54.43;;;30.23;;
17852;SDS011;9052;53.494;14.376;2023-02-28T07:13:07;48.27;;;25.40;;
17852;SDS011;9052;53.494;14.376;2023-02-28T07:15:34;38.93;;;23.30;;
17852;SDS011;9052;53.494;14.376;2023-02-28T07:18:02;37.37;;;23.10;;
17852;SDS011;9052;53.494;14.376;2023-02-28T07:20:29;49.30;;;20.03;;
17852;SDS011;9052;53.494;14.376;2023-02-28T07:22:56;36.17;;;21.67;;
17852;SDS011;9052;53.494;14.376;2023-02-28T07:25:23;37.67;;;20.73;;
17852;SDS011;9052;53.494;14.376;2023-02-28T07:27:50;35.70;;;19.90;;
17852;SDS011;9052;53.494;14.376;2023-02-28T07:30:17;26.80;;;17.73;;
17852;SDS011;9052;53.494;14.376;2023-02-28T07:32:44;34.23;;;17.77;;
17852;SDS011;9052;53.494;14.376;2023-02-28T07:35:12;29.80;;;16.27;;
17852;SDS011;9052;53.494;14.376;2023-02-28T07:37:40;32.43;;;15.80;;
17852;SDS011;9052;53.494;14.376;2023-02-28T07:40:08;33.50;;;17.97;;
17852;SDS011;9052;53.494;14.376;2023-02-28T07:42:37;47.70;;;21.53;;
17852;SDS011;9052;53.494;14.376;2023-02-28T07:45:05;51.60;;;25.80;;
17852;SDS011;9052;53.494;14.376;2023-02-28T07:47:33;44.50;;;28.73;;
17852;SDS011;9052;53.494;14.376;2023-02-28T07:49:59;43.47;;;25.87;;
17852;SDS011;9052;53.494;14.376;2023-02-28T07:52:27;58.97;;;34.10;;
17852;SDS011;9052;53.494;14.376;2023-02-28T07:54:54;51.17;;;30.17;;
17852;SDS011;9052;53.494;14.376;2023-02-28T07:57:21;53.60;;;30.97;;
17852;SDS011;9052;53.494;14.376;2023-02-28T07:59:48;54.47;;;32.23;;
17852;SDS011;9052;53.494;14.376;2023-02-28T08:02:15;57.13;;;34.83;;
17852;SDS011;9052;53.494;14.376;2023-02-28T08:04:43;58.40;;;35.83;;
17852;SDS011;9052;53.494;14.376;2023-02-28T08:07:09;47.60;;;31.07;;
17852;SDS011;9052;53.494;14.376;2023-02-28T08:09:39;45.37;;;28.50;;
17852;SDS011;9052;53.494;14.376;2023-02-28T08:12:06;56.67;;;27.23;;
17852;SDS011;9052;53.494;14.376;2023-02-28T08:14:33;55.97;;;30.50;;
17852;SDS011;9052;53.494;14.376;2023-02-28T08:17:00;44.93;;;30.70;;
17852;SDS011;9052;53.494;14.376;2023-02-28T08:19:27;40.60;;;24.93;;
17852;SDS011;9052;53.494;14.376;2023-02-28T08:21:54;52.43;;;30.47;;
17852;SDS011;9052;53.494;14.376;2023-02-28T08:24:20;51.43;;;28.37;;
17852;SDS011;9052;53.494;14.376;2023-02-28T08:26:49;47.83;;;26.27;;
17852;SDS011;9052;53.494;14.376;2023-02-28T08:29:16;42.57;;;25.73;;
17852;SDS011;9052;53.494;14.376;2023-02-28T08:31:43;42.70;;;22.90;;
17852;SDS011;9052;53.494;14.376;2023-02-28T08:34:11;42.67;;;24.20;;
17852;SDS011;9052;53.494;14.376;2023-02-28T08:36:38;46.10;;;27.80;;
17852;SDS011;9052;53.494;14.376;2023-02-28T08:39:05;29.83;;;16.87;;
17852;SDS011;9052;53.494;14.376;2023-02-28T08:41:32;40.43;;;23.03;;
17852;SDS011;9052;53.494;14.376;2023-02-28T08:44:00;31.10;;;20.30;;
17852;SDS011;9052;53.494;14.376;2023-02-28T08:46:27;34.40;;;20.37;;
17852;SDS011;9052;53.494;14.376;2023-02-28T08:48:54;39.33;;;21.60;;
17852;SDS011;9052;53.494;14.376;2023-02-28T08:51:24;39.00;;;22.50;;
17852;SDS011;9052;53.494;14.376;2023-02-28T08:53:52;24.63;;;14.00;;
17852;SDS011;9052;53.494;14.376;2023-02-28T08:56:20;26.97;;;13.50;;
17852;SDS011;9052;53.494;14.376;2023-02-28T08:58:48;17.40;;;13.00;;
17852;SDS011;9052;53.494;14.376;2023-02-28T09:01:17;17.40;;;10.70;;
17852;SDS011;9052;53.494;14.376;2023-02-28T09:03:45;24.13;;;11.27;;
17852;SDS011;9052;53.494;14.376;2023-02-28T09:06:13;16.70;;;10.00;;
17852;SDS011;9052;53.494;14.376;2023-02-28T09:08:40;27.10;;;14.00;;
17852;SDS011;9052;53.494;14.376;2023-02-28T09:11:08;18.30;;;11.33;;
17852;SDS011;9052;53.494;14.376;2023-02-28T09:13:35;15.63;;;11.93;;
17852;SDS011;9052;53.494;14.376;2023-02-28T09:16:03;17.53;;;11.57;;
17852;SDS011;9052;53.494;14.376;2023-02-28T09:18:33;18.17;;;10.03;;
17852;SDS011;9052;53.494;14.376;2023-02-28T09:21:01;12.73;;;8.20;;
17852;SDS011;9052;53.494;14.376;2023-02-28T09:23:28;25.20;;;10.60;;
17852;SDS011;9052;53.494;14.376;2023-02-28T09:25:55;19.97;;;13.07;;
17852;SDS011;9052;53.494;14.376;2023-02-28T09:28:22;22.40;;;13.00;;
17852;SDS011;9052;53.494;14.376;2023-02-28T09:30:50;16.43;;;12.17;;
17852;SDS011;9052;53.494;14.376;2023-02-28T09:33:18;23.83;;;17.47;;
17852;SDS011;9052;53.494;14.376;2023-02-28T09:35:47;19.53;;;11.13;;
17852;SDS011;9052;53.494;14.376;2023-02-28T09:38:15;13.10;;;8.37;;
17852;SDS011;9052;53.494;14.376;2023-02-28T09:40:47;18.30;;;10.00;;
17852;SDS011;9052;53.494;14.376;2023-02-28T09:43:16;17.20;;;10.10;;
17852;SDS011;9052;53.494;14.376;2023-02-28T09:45:46;8.23;;;7.20;;
17852;SDS011;9052;53.494;14.376;2023-02-28T09:48:33;11.80;;;8.10;;
17852;SDS011;9052;53.494;14.376;2023-02-28T09:51:05;14.70;;;8.90;;
17852;SDS011;9052;53.494;14.376;2023-02-28T09:53:36;7.67;;;4.70;;
17852;SDS011;9052;53.494;14.376;2023-02-28T09:56:05;11.70;;;7.30;;
17852;SDS011;9052;53.494;14.376;2023-02-28T09:58:36;16.00;;;5.90;;
17852;SDS011;9052;53.494;14.376;2023-02-28T10:01:07;8.97;;;5.67;;
17852;SDS011;9052;53.494;14.376;2023-02-28T10:03:39;9.77;;;6.93;;
17852;SDS011;9052;53.494;14.376;2023-02-28T10:06:09;9.33;;;4.80;;
17852;SDS011;9052;53.494;14.376;2023-02-28T10:08:40;18.07;;;6.70;;
17852;SDS011;9052;53.494;14.376;2023-02-28T10:11:12;7.00;;;4.50;;
17852;SDS011;9052;53.494;14.376;2023-02-28T10:13:45;8.03;;;4.30;;
17852;SDS011;9052;53.494;14.376;2023-02-28T10:16:19;5.90;;;3.83;;
17852;SDS011;9052;53.494;14.376;2023-02-28T10:18:49;6.20;;;4.60;;
17852;SDS011;9052;53.494;14.376;2023-02-28T10:21:20;7.03;;;5.23;;
17852;SDS011;9052;53.494;14.376;2023-02-28T10:23:48;10.40;;;5.90;;
17852;SDS011;9052;53.494;14.376;2023-02-28T10:26:16;10.83;;;6.13;;
17852;SDS011;9052;53.494;14.376;2023-02-28T10:28:43;10.97;;;5.63;;
17852;SDS011;9052;53.494;14.376;2023-02-28T10:31:11;13.30;;;5.53;;
17852;SDS011;9052;53.494;14.376;2023-02-28T10:33:39;8.77;;;6.20;;
17852;SDS011;9052;53.494;14.376;2023-02-28T10:36:08;9.20;;;6.00;;
17852;SDS011;9052;53.494;14.376;2023-02-28T10:38:40;6.10;;;5.37;;
17852;SDS011;9052;53.494;14.376;2023-02-28T10:41:07;12.73;;;5.93;;
17852;SDS011;9052;53.494;14.376;2023-02-28T10:43:36;7.37;;;4.20;;
17852;SDS011;9052;53.494;14.376;2023-02-28T10:46:04;14.27;;;5.10;;
17852;SDS011;9052;53.494;14.376;2023-02-28T10:48:37;4.30;;;3.80;;
17852;SDS011;9052;53.494;14.376;2023-02-28T10:51:04;5.30;;;3.10;;
17852;SDS011;9052;53.494;14.376;2023-02-28T10:53:33;5.57;;;3.03;;
17852;SDS011;9052;53.494;14.376;2023-02-28T10:56:04;4.83;;;3.03;;
17852;SDS011;9052;53.494;14.376;2023-02-28T10:58:44;5.43;;;3.73;;
17852;SDS011;9052;53.494;14.376;2023-02-28T11:01:14;12.10;;;4.50;;
17852;SDS011;9052;53.494;14.376;2023-02-28T11:03:42;4.97;;;3.70;;
17852;SDS011;9052;53.494;14.376;2023-02-28T11:06:13;6.73;;;4.47;;
17852;SDS011;9052;53.494;14.376;2023-02-28T11:08:45;8.20;;;4.90;;
17852;SDS011;9052;53.494;14.376;2023-02-28T11:11:15;5.77;;;3.80;;
17852;SDS011;9052;53.494;14.376;2023-02-28T11:13:43;13.90;;;4.97;;
17852;SDS011;9052;53.494;14.376;2023-02-28T11:16:12;7.57;;;4.27;;
17852;SDS011;9052;53.494;14.376;2023-02-28T11:18:40;4.70;;;3.63;;
17852;SDS011;9052;53.494;14.376;2023-02-28T11:21:09;9.30;;;3.97;;
17852;SDS011;9052;53.494;14.376;2023-02-28T11:23:36;8.27;;;4.50;;
17852;SDS011;9052;53.494;14.376;2023-02-28T11:26:06;8.60;;;4.40;;
17852;SDS011;9052;53.494;14.376;2023-02-28T11:28:37;3.90;;;3.07;;
17852;SDS011;9052;53.494;14.376;2023-02-28T11:31:14;6.83;;;2.70;;
17852;SDS011;9052;53.494;14.376;2023-02-28T11:33:45;3.97;;;2.80;;
17852;SDS011;9052;53.494;14.376;2023-02-28T11:36:14;2.23;;;2.03;;
17852;SDS011;9052;53.494;14.376;2023-02-28T11:38:43;5.33;;;2.10;;
17852;SDS011;9052;53.494;14.376;2023-02-28T11:41:22;4.47;;;2.00;;
17852;SDS011;9052;53.494;14.376;2023-02-28T11:44:03;3.73;;;2.00;;
17852;SDS011;9052;53.494;14.376;2023-02-28T11:46:36;6.20;;;2.30;;
17852;SDS011;9052;53.494;14.376;2023-02-28T11:49:07;5.83;;;2.73;;
17852;SDS011;9052;53.494;14.376;2023-02-28T11:51:47;6.33;;;2.77;;
17852;SDS011;9052;53.494;14.376;2023-02-28T11:54:24;5.20;;;2.20;;
17852;SDS011;9052;53.494;14.376;2023-02-28T11:56:55;2.33;;;2.00;;
17852;SDS011;9052;53.494;14.376;2023-02-28T11:59:32;35.07;;;16.23;;
17852;SDS011;9052;53.494;14.376;2023-02-28T12:02:09;4.53;;;3.13;;
17852;SDS011;9052;53.494;14.376;2023-02-28T12:07:43;5.73;;;3.70;;
17852;SDS011;9052;53.494;14.376;2023-02-28T12:10:19;4.30;;;2.13;;
17852;SDS011;9052;53.494;14.376;2023-02-28T12:12:49;3.93;;;1.97;;
17852;SDS011;9052;53.494;14.376;2023-02-28T12:15:30;5.93;;;3.10;;
17852;SDS011;9052;53.494;14.376;2023-02-28T12:18:06;12.07;;;6.17;;
17852;SDS011;9052;53.494;14.376;2023-02-28T12:20:40;2.60;;;2.30;;
17852;SDS011;9052;53.494;14.376;2023-02-28T12:23:17;8.80;;;4.07;;
17852;SDS011;9052;53.494;14.376;2023-02-28T12:25:54;9.07;;;4.97;;
17852;SDS011;9052;53.494;14.376;2023-02-28T12:28:30;5.73;;;2.33;;
17852;SDS011;9052;53.494;14.376;2023-02-28T12:31:03;2.50;;;2.10;;
17852;SDS011;9052;53.494;14.376;2023-02-28T12:33:32;11.20;;;2.37;;
17852;SDS011;9052;53.494;14.376;2023-02-28T12:36:02;6.00;;;3.93;;
17852;SDS011;9052;53.494;14.376;2023-02-28T12:38:34;11.93;;;5.27;;
17852;SDS011;9052;53.494;14.376;2023-02-28T12:41:03;3.43;;;2.40;;
17852;SDS011;9052;53.494;14.376;2023-02-28T12:43:34;2.40;;;1.90;;
17852;SDS011;9052;53.494;14.376;2023-02-28T12:46:06;5.30;;;3.30;;
17852;SDS011;9052;53.494;14.376;2023-02-28T12:48:37;3.30;;;2.30;;
17852;SDS011;9052;53.494;14.376;2023-02-28T12:51:07;7.87;;;3.20;;
17852;SDS011;9052;53.494;14.376;2023-02-28T12:53:36;4.30;;;1.97;;
17852;SDS011;9052;53.494;14.376;2023-02-28T12:56:13;3.17;;;2.33;;
17852;SDS011;9052;53.494;14.376;2023-02-28T12:58:45;15.67;;;2.40;;
17852;SDS011;9052;53.494;14.376;2023-02-28T13:01:25;2.73;;;2.50;;
17852;SDS011;9052;53.494;14.376;2023-02-28T13:04:32;6.97;;;1.90;;
17852;SDS011;9052;53.494;14.376;2023-02-28T13:07:12;9.50;;;3.90;;
17852;SDS011;9052;53.494;14.376;2023-02-28T13:09:51;5.67;;;3.60;;
17852;SDS011;9052;53.494;14.376;2023-02-28T13:12:18;9.53;;;4.60;;
17852;SDS011;9052;53.494;14.376;2023-02-28T13:14:48;6.00;;;2.90;;
17852;SDS011;9052;53.494;14.376;2023-02-28T13:17:17;4.10;;;2.97;;
17852;SDS011;9052;53.494;14.376;2023-02-28T13:19:46;2.43;;;2.23;;
17852;SDS011;9052;53.494;14.376;2023-02-28T13:22:35;6.03;;;3.13;;
17852;SDS011;9052;53.494;14.376;2023-02-28T13:25:13;5.90;;;2.83;;
17852;SDS011;9052;53.494;14.376;2023-02-28T13:31:27;4.40;;;2.53;;
17852;SDS011;9052;53.494;14.376;2023-02-28T13:34:15;4.17;;;1.90;;
17852;SDS011;9052;53.494;14.376;2023-02-28T13:36:42;5.03;;;2.53;;
17852;SDS011;9052;53.494;14.376;2023-02-28T13:45:21;4.33;;;2.40;;
17852;SDS011;9052;53.494;14.376;2023-02-28T13:47:56;3.33;;;2.13;;
17852;SDS011;9052;53.494;14.376;2023-02-28T13:50:38;2.20;;;1.63;;
17852;SDS011;9052;53.494;14.376;2023-02-28T13:53:26;3.13;;;1.63;;
17852;SDS011;9052;53.494;14.376;2023-02-28T13:55:59;5.10;;;2.00;;
17852;SDS011;9052;53.494;14.376;2023-02-28T13:58:36;2.70;;;2.03;;
17852;SDS011;9052;53.494;14.376;2023-02-28T14:01:11;4.93;;;2.13;;
17852;SDS011;9052;53.494;14.376;2023-02-28T14:07:02;2.80;;;2.00;;
17852;SDS011;9052;53.494;14.376;2023-02-28T14:09:30;1.83;;;1.70;;
17852;SDS011;9052;53.494;14.376;2023-02-28T14:11:59;3.47;;;1.83;;
17852;SDS011;9052;53.494;14.376;2023-02-28T14:15:01;3.17;;;1.37;;
17852;SDS011;9052;53.494;14.376;2023-02-28T14:17:27;1.87;;;1.67;;
17852;SDS011;9052;53.494;14.376;2023-02-28T14:19:54;2.20;;;2.00;;
17852;SDS011;9052;53.494;14.376;2023-02-28T14:22:32;4.23;;;2.60;;
17852;SDS011;9052;53.494;14.376;2023-02-28T14:25:13;2.43;;;1.40;;
17852;SDS011;9052;53.494;14.376;2023-02-28T14:27:46;2.10;;;1.73;;
17852;SDS011;9052;53.494;14.376;2023-02-28T14:30:26;3.27;;;1.53;;
17852;SDS011;9052;53.494;14.376;2023-02-28T14:33:13;2.10;;;1.87;;
17852;SDS011;9052;53.494;14.376;2023-02-28T14:35:52;2.00;;;1.57;;
17852;SDS011;9052;53.494;14.376;2023-02-28T14:38:27;1.73;;;1.33;;
17852;SDS011;9052;53.494;14.376;2023-02-28T14:40:57;1.43;;;1.20;;
17852;SDS011;9052;53.494;14.376;2023-02-28T14:43:25;2.13;;;1.43;;
17852;SDS011;9052;53.494;14.376;2023-02-28T14:45:53;4.20;;;1.27;;
17852;SDS011;9052;53.494;14.376;2023-02-28T14:48:22;1.43;;;1.33;;
17852;SDS011;9052;53.494;14.376;2023-02-28T14:50:50;1.83;;;0.90;;
17852;SDS011;9052;53.494;14.376;2023-02-28T14:53:18;1.30;;;1.00;;
17852;SDS011;9052;53.494;14.376;2023-02-28T14:55:48;1.00;;;0.83;;
17852;SDS011;9052;53.494;14.376;2023-02-28T14:58:22;1.03;;;0.93;;
17852;SDS011;9052;53.494;14.376;2023-02-28T15:00:51;2.03;;;1.53;;
17852;SDS011;9052;53.494;14.376;2023-02-28T15:03:19;2.50;;;1.80;;
17852;SDS011;9052;53.494;14.376;2023-02-28T15:05:53;10.73;;;1.90;;
17852;SDS011;9052;53.494;14.376;2023-02-28T15:08:21;1.13;;;1.03;;
17852;SDS011;9052;53.494;14.376;2023-02-28T15:10:53;2.10;;;1.50;;
17852;SDS011;9052;53.494;14.376;2023-02-28T15:13:20;2.30;;;1.30;;
17852;SDS011;9052;53.494;14.376;2023-02-28T15:15:48;3.63;;;1.33;;